Time;durP1;ratioP1;P1;durP2;ratioP2;P2;SDS_P1;SDS_P2;PMS_P1;PMS_P2;Temp;Humidity;BMP_temperature;BMP_pressure;BME280_temperature;BME280_humidity;BME280_pressure;Samples;Min_cycle;Max_cycle;Signal;HPM_P1;HPM_P2
2022/05/25 00:01:52;;;;;;;4.53;3.00;;;;;;;;;;5109844;27;20747;-71
2022/05/25 00:04:19;;;;;;;4.03;2.90;;;;;;;;;;5109212;27;20511;-71
2022/05/25 00:06:50;;;;;;;4.00;2.60;;;;;;;;;;5118940;27;20451;-71
2022/05/25 00:09:17;;;;;;;3.90;2.80;;;;;;;;;;5109760;27;20543;-71
2022/05/25 00:11:48;;;;;;;4.43;3.30;;;;;;;;;;5099756;28;21158;-71
2022/05/25 00:14:15;;;;;;;4.53;3.50;;;;;;;;;;5105937;28;20545;-71
2022/05/25 00:16:42;;;;;;;4.50;3.13;;;;;;;;;;5115772;27;20457;-71
2022/05/25 00:21:53;;;;;;;5.20;3.77;;;;;;;;;;5103434;27;20552;-71
2022/05/25 00:24:20;;;;;;;4.67;3.37;;;;;;;;;;5118634;27;20765;-71
2022/05/25 00:26:48;;;;;;;6.20;3.40;;;;;;;;;;5109382;28;20459;-70
2022/05/25 00:29:15;;;;;;;3.90;3.47;;;;;;;;;;5110000;27;20454;-70
2022/05/25 00:31:43;;;;;;;6.27;3.77;;;;;;;;;;5118529;27;20482;-71
2022/05/25 00:34:10;;;;;;;8.03;3.50;;;;;;;;;;5110463;28;20439;-71
2022/05/25 00:36:38;;;;;;;4.23;3.73;;;;;;;;;;5110359;27;20454;-71
2022/05/25 00:39:05;;;;;;;4.97;3.67;;;;;;;;;;5117168;27;20526;-70
2022/05/25 00:41:32;;;;;;;5.63;3.50;;;;;;;;;;5101534;28;20472;-71
2022/05/25 00:44:00;;;;;;;5.27;4.30;;;;;;;;;;5105908;28;20836;-71
2022/05/25 00:46:29;;;;;;;4.97;3.37;;;;;;;;;;5113523;28;20482;-70
2022/05/25 00:48:57;;;;;;;5.07;3.93;;;;;;;;;;5105831;28;20436;-71
2022/05/25 00:51:32;;;;;;;5.70;3.30;;;;;;;;;;5098004;28;20487;-71
2022/05/25 00:54:02;;;;;;;5.57;3.77;;;;;;;;;;5098265;28;20492;-71
2022/05/25 00:56:30;;;;;;;5.33;4.00;;;;;;;;;;5097836;28;20899;-71
2022/05/25 00:58:59;;;;;;;6.70;4.40;;;;;;;;;;5096463;28;20742;-71
2022/05/25 01:01:28;;;;;;;4.93;3.73;;;;;;;;;;5098586;28;20506;-71
2022/05/25 01:03:55;;;;;;;5.43;4.30;;;;;;;;;;5096576;28;20459;-71
2022/05/25 01:06:31;;;;;;;6.23;4.80;;;;;;;;;;5097915;28;20451;-71
2022/05/25 01:09:03;;;;;;;5.33;4.27;;;;;;;;;;5097205;28;20466;-71
2022/05/25 01:11:38;;;;;;;8.70;5.13;;;;;;;;;;5096280;28;20899;-71
2022/05/25 01:14:12;;;;;;;4.90;3.93;;;;;;;;;;5097948;28;20632;-70
2022/05/25 01:16:43;;;;;;;5.03;4.03;;;;;;;;;;5097040;28;20868;-71
2022/05/25 01:19:15;;;;;;;6.87;4.20;;;;;;;;;;5096967;28;20460;-70
2022/05/25 01:21:45;;;;;;;6.20;4.40;;;;;;;;;;5097224;28;20443;-71
2022/05/25 01:24:23;;;;;;;5.77;4.80;;;;;;;;;;5097093;28;20533;-71
2022/05/25 01:27:08;;;;;;;5.37;4.33;;;;;;;;;;5097191;28;20443;-70
2022/05/25 01:29:58;;;;;;;5.27;4.33;;;;;;;;;;5087211;28;20558;-70
2022/05/25 01:32:31;;;;;;;5.60;4.07;;;;;;;;;;5097397;28;20903;-70
2022/05/25 01:35:01;;;;;;;6.10;4.53;;;;;;;;;;5097132;28;20459;-69
2022/05/25 01:37:29;;;;;;;5.47;4.60;;;;;;;;;;5104266;28;20935;-70
2022/05/25 01:40:00;;;;;;;6.67;4.60;;;;;;;;;;5117018;27;20538;-70
2022/05/25 01:42:28;;;;;;;5.80;4.53;;;;;;;;;;5116458;27;20497;-71
2022/05/25 01:45:01;;;;;;;5.80;4.87;;;;;;;;;;5116758;27;20443;-71
2022/05/25 01:47:30;;;;;;;6.20;4.77;;;;;;;;;;5115605;27;20426;-71
2022/05/25 01:49:58;;;;;;;6.00;4.97;;;;;;;;;;5099110;28;20649;-71
2022/05/25 01:52:27;;;;;;;6.10;5.07;;;;;;;;;;5096959;28;21069;-71
2022/05/25 01:54:56;;;;;;;8.00;4.90;;;;;;;;;;5097002;28;20530;-71
2022/05/25 01:57:25;;;;;;;5.67;4.73;;;;;;;;;;5096600;28;20459;-71
2022/05/25 01:59:52;;;;;;;6.47;4.63;;;;;;;;;;5096392;28;20451;-71
2022/05/25 02:05:08;;;;;;;8.07;4.90;;;;;;;;;;5096381;28;20592;-71
2022/05/25 02:07:50;;;;;;;6.80;4.80;;;;;;;;;;5096604;28;20455;-71
2022/05/25 02:10:27;;;;;;;6.20;5.00;;;;;;;;;;5095690;28;20499;-71
2022/05/25 02:13:00;;;;;;;5.70;4.97;;;;;;;;;;5115895;27;20478;-71
2022/05/25 02:15:30;;;;;;;7.80;5.27;;;;;;;;;;5100414;28;20449;-70
2022/05/25 02:18:01;;;;;;;6.33;4.70;;;;;;;;;;5100422;28;20776;-71
2022/05/25 02:20:33;;;;;;;5.17;4.67;;;;;;;;;;5096743;28;20450;-70
2022/05/25 02:23:06;;;;;;;7.17;5.30;;;;;;;;;;5104473;28;20462;-71
2022/05/25 02:25:35;;;;;;;7.20;4.80;;;;;;;;;;5096492;28;20440;-70
2022/05/25 02:28:06;;;;;;;6.63;5.40;;;;;;;;;;5095323;28;20443;-70
2022/05/25 02:30:36;;;;;;;6.33;5.30;;;;;;;;;;5095877;28;20528;-70
2022/05/25 02:33:04;;;;;;;5.70;5.10;;;;;;;;;;5095400;28;20748;-70
2022/05/25 02:35:34;;;;;;;7.47;5.70;;;;;;;;;;5095390;28;20444;-70
2022/05/25 02:38:03;;;;;;;6.60;4.80;;;;;;;;;;5095733;28;20456;-69
2022/05/25 02:40:30;;;;;;;6.90;5.07;;;;;;;;;;5095566;28;20459;-69
2022/05/25 02:42:58;;;;;;;6.63;5.00;;;;;;;;;;5095577;28;20470;-69
2022/05/25 02:45:25;;;;;;;6.13;5.37;;;;;;;;;;5096098;28;20459;-69
2022/05/25 02:47:52;;;;;;;9.13;5.60;;;;;;;;;;5096002;28;20451;-69
2022/05/25 02:50:19;;;;;;;8.27;5.00;;;;;;;;;;5096532;28;20447;-69
2022/05/25 02:52:47;;;;;;;7.03;5.80;;;;;;;;;;5096229;28;20552;-68
2022/05/25 02:55:14;;;;;;;7.80;5.17;;;;;;;;;;5098958;28;20487;-70
2022/05/25 02:57:41;;;;;;;6.77;5.73;;;;;;;;;;5099808;28;20439;-70
2022/05/25 03:00:09;;;;;;;7.40;5.47;;;;;;;;;;5099013;28;20878;-70
2022/05/25 03:02:36;;;;;;;6.73;5.33;;;;;;;;;;5100066;28;20498;-70
2022/05/25 03:05:04;;;;;;;7.30;5.43;;;;;;;;;;5098298;28;20452;-70
2022/05/25 03:07:31;;;;;;;7.17;5.73;;;;;;;;;;5099595;28;20483;-70
2022/05/25 03:10:05;;;;;;;7.23;5.80;;;;;;;;;;5111385;28;20450;-70
2022/05/25 03:12:32;;;;;;;8.30;5.97;;;;;;;;;;5118476;28;20482;-70
2022/05/25 03:14:59;;;;;;;7.03;5.93;;;;;;;;;;5117778;28;20729;-70
2022/05/25 03:17:26;;;;;;;6.70;5.53;;;;;;;;;;5118688;28;20447;-70
2022/05/25 03:19:54;;;;;;;5.83;5.23;;;;;;;;;;5118395;28;20881;-70
2022/05/25 03:22:24;;;;;;;7.63;6.30;;;;;;;;;;5118448;28;20511;-69
2022/05/25 03:24:51;;;;;;;8.10;6.17;;;;;;;;;;5118128;28;20596;-69
2022/05/25 03:27:19;;;;;;;8.97;5.83;;;;;;;;;;5118584;28;20450;-69
2022/05/25 03:29:46;;;;;;;7.90;6.03;;;;;;;;;;5117996;28;20466;-69
2022/05/25 03:32:13;;;;;;;7.37;5.73;;;;;;;;;;5118129;28;20750;-69
2022/05/25 03:34:40;;;;;;;7.60;6.30;;;;;;;;;;5118410;28;20819;-70
2022/05/25 03:37:07;;;;;;;7.37;6.67;;;;;;;;;;5117999;28;20478;-69
2022/05/25 03:39:34;;;;;;;7.97;5.77;;;;;;;;;;5118487;28;20470;-69
2022/05/25 03:42:04;;;;;;;8.77;6.07;;;;;;;;;;5117690;28;20927;-69
2022/05/25 03:44:32;;;;;;;11.60;6.43;;;;;;;;;;5116396;28;20443;-69
2022/05/25 03:46:59;;;;;;;6.70;5.70;;;;;;;;;;5117887;28;20464;-69
2022/05/25 03:49:29;;;;;;;7.60;5.77;;;;;;;;;;5117262;28;20470;-70
2022/05/25 03:52:02;;;;;;;7.60;6.47;;;;;;;;;;5117903;28;21012;-69
2022/05/25 03:54:29;;;;;;;8.10;6.97;;;;;;;;;;5117936;28;20559;-71
2022/05/25 03:56:56;;;;;;;7.30;6.60;;;;;;;;;;5116963;27;20454;-71
2022/05/25 03:59:24;;;;;;;7.73;5.80;;;;;;;;;;5118763;27;21018;-70
2022/05/25 04:01:52;;;;;;;7.13;5.97;;;;;;;;;;5118841;27;20457;-70
2022/05/25 04:04:19;;;;;;;10.40;6.40;;;;;;;;;;5117147;27;20450;-70
2022/05/25 04:06:46;;;;;;;7.20;6.23;;;;;;;;;;5118137;27;20488;-70
2022/05/25 04:09:13;;;;;;;9.57;7.07;;;;;;;;;;5117510;27;20757;-70
2022/05/25 04:11:43;;;;;;;11.00;6.87;;;;;;;;;;5117723;27;20538;-70
2022/05/25 04:14:10;;;;;;;6.53;5.73;;;;;;;;;;5119104;27;20447;-70
2022/05/25 04:16:37;;;;;;;7.33;6.13;;;;;;;;;;5117989;27;20465;-69
2022/05/25 04:19:05;;;;;;;7.70;6.50;;;;;;;;;;5116696;27;20459;-70
2022/05/25 04:21:32;;;;;;;7.50;6.63;;;;;;;;;;5118918;27;20481;-70
2022/05/25 04:24:00;;;;;;;9.93;7.53;;;;;;;;;;5118493;27;20450;-70
2022/05/25 04:26:30;;;;;;;8.07;6.80;;;;;;;;;;5117741;27;20462;-71
2022/05/25 04:28:58;;;;;;;8.87;7.17;;;;;;;;;;5117838;27;20451;-68
2022/05/25 04:31:25;;;;;;;9.00;7.63;;;;;;;;;;5118361;27;20461;-71
2022/05/25 04:33:52;;;;;;;10.50;7.43;;;;;;;;;;5118564;27;20453;-70
2022/05/25 04:36:20;;;;;;;14.53;10.37;;;;;;;;;;5118139;27;20458;-70
2022/05/25 04:38:47;;;;;;;8.23;6.30;;;;;;;;;;5117617;27;20469;-70
2022/05/25 04:41:14;;;;;;;9.30;7.33;;;;;;;;;;5117891;27;20489;-70
2022/05/25 04:43:43;;;;;;;7.57;6.67;;;;;;;;;;5117719;27;20492;-70
2022/05/25 04:46:11;;;;;;;9.30;7.20;;;;;;;;;;5116961;27;20557;-70
2022/05/25 04:48:38;;;;;;;9.03;7.20;;;;;;;;;;5117714;27;20863;-70
2022/05/25 04:51:05;;;;;;;7.43;6.60;;;;;;;;;;5117201;27;20439;-71
2022/05/25 04:53:33;;;;;;;9.77;7.47;;;;;;;;;;5117473;27;20551;-71
2022/05/25 04:58:46;;;;;;;8.33;7.10;;;;;;;;;;5115757;27;20795;-71
2022/05/25 05:01:14;;;;;;;8.60;6.43;;;;;;;;;;5117729;27;20446;-70
2022/05/25 05:03:42;;;;;;;8.10;6.90;;;;;;;;;;5116862;27;20468;-70
2022/05/25 05:06:10;;;;;;;13.47;7.20;;;;;;;;;;5116882;27;20457;-70
2022/05/25 05:08:38;;;;;;;7.93;5.97;;;;;;;;;;5117316;27;20451;-71
2022/05/25 05:11:10;;;;;;;7.70;6.90;;;;;;;;;;5113707;27;20637;-71
2022/05/25 05:13:40;;;;;;;7.97;6.80;;;;;;;;;;5114893;27;20786;-71
2022/05/25 05:16:08;;;;;;;7.40;6.40;;;;;;;;;;5112589;27;20453;-71
2022/05/25 05:18:35;;;;;;;7.60;6.77;;;;;;;;;;5113262;27;20927;-71
2022/05/25 05:21:05;;;;;;;7.40;6.40;;;;;;;;;;5101740;27;20448;-71
2022/05/25 05:23:33;;;;;;;7.67;6.87;;;;;;;;;;5095615;27;20487;-71
2022/05/25 05:26:01;;;;;;;7.57;6.60;;;;;;;;;;5108438;28;20498;-69
2022/05/25 05:28:32;;;;;;;7.40;6.40;;;;;;;;;;5110526;27;20443;-69
2022/05/25 05:31:02;;;;;;;8.20;6.90;;;;;;;;;;5102144;27;20448;-69
2022/05/25 05:33:29;;;;;;;8.67;7.57;;;;;;;;;;5109759;27;20492;-71
2022/05/25 05:36:02;;;;;;;7.87;6.93;;;;;;;;;;5100443;27;20450;-71
2022/05/25 05:38:30;;;;;;;8.00;6.70;;;;;;;;;;5105466;27;20478;-70
2022/05/25 05:40:57;;;;;;;10.10;6.83;;;;;;;;;;5106604;27;20440;-70
2022/05/25 05:43:25;;;;;;;7.30;6.20;;;;;;;;;;5103475;27;20451;-71
2022/05/25 05:45:56;;;;;;;7.57;6.80;;;;;;;;;;5106747;27;20479;-72
2022/05/25 05:48:25;;;;;;;7.30;6.20;;;;;;;;;;5097824;28;20884;-71
2022/05/25 05:51:03;;;;;;;8.50;6.70;;;;;;;;;;5093303;28;20452;-71
2022/05/25 05:53:34;;;;;;;7.20;6.10;;;;;;;;;;5096442;28;20475;-71
2022/05/25 05:56:01;;;;;;;7.03;5.53;;;;;;;;;;5099365;28;20472;-71
2022/05/25 05:58:31;;;;;;;6.43;5.23;;;;;;;;;;5095415;28;20462;-71
2022/05/25 06:00:59;;;;;;;8.33;6.70;;;;;;;;;;5099025;28;20470;-71
2022/05/25 06:03:26;;;;;;;7.93;6.50;;;;;;;;;;5102475;28;20453;-70
2022/05/25 06:05:53;;;;;;;6.93;6.23;;;;;;;;;;5104376;27;21028;-69
2022/05/25 06:08:24;;;;;;;7.47;5.60;;;;;;;;;;5105883;27;20448;-72
2022/05/25 06:10:51;;;;;;;7.47;6.23;;;;;;;;;;5101873;28;20444;-70
2022/05/25 06:13:22;;;;;;;6.00;5.40;;;;;;;;;;5101708;28;20515;-72
2022/05/25 06:21:23;;;;;;;7.10;5.63;;;;;;;;;;5109957;28;20442;-69
2022/05/25 06:23:50;;;;;;;7.20;5.97;;;;;;;;;;5098952;28;20612;-71
2022/05/25 06:26:19;;;;;;;11.43;5.80;;;;;;;;;;5105517;27;20449;-70
2022/05/25 06:28:56;;;;;;;6.20;5.00;;;;;;;;;;5102055;27;20784;-71
2022/05/25 06:31:33;;;;;;;5.50;4.90;;;;;;;;;;5113132;28;20776;-70
2022/05/25 06:34:00;;;;;;;7.80;6.13;;;;;;;;;;5097585;28;20468;-69
2022/05/25 06:36:29;;;;;;;6.50;5.10;;;;;;;;;;5104752;28;20766;-70
2022/05/25 06:39:08;;;;;;;7.60;5.80;;;;;;;;;;5104916;28;20459;-72
2022/05/25 06:41:37;;;;;;;6.83;5.13;;;;;;;;;;5111974;27;20940;-70
2022/05/25 06:44:07;;;;;;;8.03;4.80;;;;;;;;;;5094726;28;20459;-70
2022/05/25 06:46:39;;;;;;;7.70;5.70;;;;;;;;;;5101942;28;20750;-71
2022/05/25 06:49:07;;;;;;;6.80;5.57;;;;;;;;;;5105245;27;20446;-70
2022/05/25 06:51:36;;;;;;;7.50;6.13;;;;;;;;;;5105593;27;20906;-70
2022/05/25 06:54:05;;;;;;;11.17;6.80;;;;;;;;;;5101257;28;20531;-71
2022/05/25 06:56:39;;;;;;;7.27;6.07;;;;;;;;;;5096966;27;20532;-71
2022/05/25 06:59:11;;;;;;;9.50;5.40;;;;;;;;;;5096184;28;20450;-71
2022/05/25 07:01:42;;;;;;;10.97;7.90;;;;;;;;;;5103366;28;20586;-70
2022/05/25 07:04:13;;;;;;;8.73;6.10;;;;;;;;;;5098145;28;20451;-71
2022/05/25 07:06:42;;;;;;;7.57;5.60;;;;;;;;;;5103262;28;20814;-70
2022/05/25 07:09:30;;;;;;;5.80;5.20;;;;;;;;;;5111267;27;20459;-71
2022/05/25 07:11:58;;;;;;;5.23;4.53;;;;;;;;;;5102310;28;20741;-70
2022/05/25 07:14:27;;;;;;;5.73;4.80;;;;;;;;;;5099806;27;20458;-72
2022/05/25 07:16:55;;;;;;;6.27;5.40;;;;;;;;;;5104936;27;20842;-72
2022/05/25 07:19:23;;;;;;;5.67;3.80;;;;;;;;;;5104112;27;20448;-72
2022/05/25 07:21:51;;;;;;;4.83;3.53;;;;;;;;;;5104510;28;20502;-72
2022/05/25 07:24:18;;;;;;;8.83;4.07;;;;;;;;;;5103753;27;20771;-70
2022/05/25 07:26:50;;;;;;;4.97;3.10;;;;;;;;;;5108398;27;20458;-71
2022/05/25 07:29:17;;;;;;;7.20;3.20;;;;;;;;;;5098010;28;20491;-70
2022/05/25 07:31:46;;;;;;;4.60;2.50;;;;;;;;;;5113481;27;20461;-70
2022/05/25 07:34:15;;;;;;;3.60;2.60;;;;;;;;;;5102509;27;20522;-70
2022/05/25 07:36:50;;;;;;;4.20;2.63;;;;;;;;;;5112873;27;20458;-70
2022/05/25 07:39:32;;;;;;;3.47;2.70;;;;;;;;;;5098482;27;20461;-70
2022/05/25 07:42:02;;;;;;;4.57;2.63;;;;;;;;;;5105896;27;20463;-71
2022/05/25 07:44:31;;;;;;;3.80;2.90;;;;;;;;;;5110158;27;20479;-71
2022/05/25 07:46:59;;;;;;;2.80;1.90;;;;;;;;;;5105035;27;20486;-71
2022/05/25 07:49:28;;;;;;;4.50;2.33;;;;;;;;;;5100645;28;20486;-70
2022/05/25 07:52:08;;;;;;;2.43;1.73;;;;;;;;;;5109002;27;20483;-71
2022/05/25 07:54:46;;;;;;;3.23;1.80;;;;;;;;;;5102764;28;21075;-70
2022/05/25 07:57:22;;;;;;;5.97;2.67;;;;;;;;;;5112105;27;21050;-70
2022/05/25 07:59:49;;;;;;;5.30;2.27;;;;;;;;;;5111674;27;20473;-70
2022/05/25 08:08:06;;;;;;;2.80;1.40;;;;;;;;;;5100786;27;20620;-69
2022/05/25 08:10:33;;;;;;;4.70;2.33;;;;;;;;;;5109694;27;20544;-70
2022/05/25 08:13:02;;;;;;;2.90;1.73;;;;;;;;;;5104781;28;20483;-69
2022/05/25 08:15:33;;;;;;;2.47;1.73;;;;;;;;;;5111432;27;20466;-70
2022/05/25 08:18:02;;;;;;;5.07;2.33;;;;;;;;;;5112860;27;20472;-70
2022/05/25 08:20:34;;;;;;;3.10;1.80;;;;;;;;;;5114862;27;20863;-69
2022/05/25 08:23:09;;;;;;;2.93;1.63;;;;;;;;;;5106976;27;20573;-70
2022/05/25 08:25:38;;;;;;;3.13;2.00;;;;;;;;;;5095687;28;20443;-70
2022/05/25 08:28:07;;;;;;;2.87;1.50;;;;;;;;;;5096207;27;20775;-70
2022/05/25 08:30:37;;;;;;;2.43;1.53;;;;;;;;;;5107209;28;20520;-69
2022/05/25 08:33:11;;;;;;;3.07;1.50;;;;;;;;;;5106391;27;20487;-71
2022/05/25 08:35:51;;;;;;;3.00;1.47;;;;;;;;;;5099946;28;20542;-70
2022/05/25 08:38:25;;;;;;;2.27;1.27;;;;;;;;;;5109326;27;20477;-69
2022/05/25 08:40:54;;;;;;;2.87;1.60;;;;;;;;;;5102535;27;20460;-69
2022/05/25 08:43:39;;;;;;;4.47;1.43;;;;;;;;;;5114668;27;21022;-69
2022/05/25 08:46:08;;;;;;;2.67;1.50;;;;;;;;;;5102225;27;20507;-70
2022/05/25 08:48:38;;;;;;;4.23;1.57;;;;;;;;;;5112624;27;20483;-69
2022/05/25 08:51:11;;;;;;;3.63;1.50;;;;;;;;;;5098655;28;20447;-70
2022/05/25 08:53:39;;;;;;;5.73;2.00;;;;;;;;;;5099652;27;20483;-69
2022/05/25 08:56:12;;;;;;;1.80;1.03;;;;;;;;;;5104834;27;20461;-69
2022/05/25 08:58:49;;;;;;;4.40;1.50;;;;;;;;;;5098794;28;21031;-70
2022/05/25 09:01:26;;;;;;;5.50;2.07;;;;;;;;;;5095940;28;21003;-71
2022/05/25 09:03:59;;;;;;;2.07;1.30;;;;;;;;;;5101532;27;20559;-70
2022/05/25 09:06:32;;;;;;;4.13;1.23;;;;;;;;;;5112171;27;20435;-70
2022/05/25 09:09:03;;;;;;;7.47;4.30;;;;;;;;;;5110892;27;20558;-70
2022/05/25 09:11:41;;;;;;;1.80;1.07;;;;;;;;;;5100760;28;20517;-69
2022/05/25 09:14:13;;;;;;;5.00;1.67;;;;;;;;;;5110014;27;20478;-69
2022/05/25 09:16:42;;;;;;;4.10;1.40;;;;;;;;;;5110383;27;20462;-70
2022/05/25 09:19:18;;;;;;;1.97;1.03;;;;;;;;;;5098779;28;20535;-69
2022/05/25 09:21:49;;;;;;;4.27;1.10;;;;;;;;;;5109849;27;20922;-70
2022/05/25 09:24:24;;;;;;;2.47;0.97;;;;;;;;;;5107381;27;20482;-70
2022/05/25 09:26:52;;;;;;;2.30;1.03;;;;;;;;;;5114771;27;20781;-69
2022/05/25 09:29:26;;;;;;;3.37;2.17;;;;;;;;;;5112231;27;20738;-70
2022/05/25 09:31:56;;;;;;;1.70;0.90;;;;;;;;;;5106031;27;20463;-71
2022/05/25 09:34:30;;;;;;;2.20;1.30;;;;;;;;;;5111215;27;20517;-71
2022/05/25 09:37:01;;;;;;;2.30;1.30;;;;;;;;;;5101264;27;20459;-71
2022/05/25 09:39:33;;;;;;;2.57;1.33;;;;;;;;;;5104535;28;20501;-71
2022/05/25 09:42:03;;;;;;;2.70;1.03;;;;;;;;;;5098448;27;20452;-71
2022/05/25 09:44:30;;;;;;;3.30;1.23;;;;;;;;;;5103984;27;20884;-71
2022/05/25 09:46:59;;;;;;;2.10;1.10;;;;;;;;;;5106064;28;20754;-71
2022/05/25 09:49:38;;;;;;;2.10;1.10;;;;;;;;;;5100326;27;20463;-72
2022/05/25 09:52:21;;;;;;;6.30;3.57;;;;;;;;;;5112547;27;20485;-72
2022/05/25 09:55:01;;;;;;;2.30;1.20;;;;;;;;;;5089883;28;21048;-71
2022/05/25 09:57:33;;;;;;;2.67;1.53;;;;;;;;;;5112344;27;20462;-70
2022/05/25 10:00:03;;;;;;;2.30;1.43;;;;;;;;;;5104331;28;20451;-71
2022/05/25 10:02:35;;;;;;;2.20;1.20;;;;;;;;;;5100788;27;20555;-71
2022/05/25 10:05:13;;;;;;;2.50;1.10;;;;;;;;;;5106370;27;20457;-72
2022/05/25 10:07:49;;;;;;;3.67;1.20;;;;;;;;;;5095432;28;20857;-71
2022/05/25 10:10:16;;;;;;;2.70;1.17;;;;;;;;;;5101059;27;21099;-70
2022/05/25 10:12:48;;;;;;;2.10;1.13;;;;;;;;;;5102298;28;20483;-71
2022/05/25 10:15:17;;;;;;;3.20;1.10;;;;;;;;;;5109522;28;20556;-70
2022/05/25 10:17:49;;;;;;;2.47;1.00;;;;;;;;;;5104995;28;20554;-71
2022/05/25 10:20:27;;;;;;;1.90;1.07;;;;;;;;;;5099466;27;20756;-70
2022/05/25 10:23:07;;;;;;;2.10;1.10;;;;;;;;;;5099706;27;20890;-72
2022/05/25 10:25:42;;;;;;;2.93;0.90;;;;;;;;;;5112872;27;20458;-70
2022/05/25 10:28:21;;;;;;;3.57;1.67;;;;;;;;;;5104010;27;20458;-70
2022/05/25 10:36:49;;;;;;;3.10;1.10;;;;;;;;;;5102621;27;20485;-71
2022/05/25 10:39:34;;;;;;;5.10;1.50;;;;;;;;;;5105192;27;20482;-71
2022/05/25 10:42:16;;;;;;;2.40;1.20;;;;;;;;;;5109079;27;20467;-70
2022/05/25 10:44:55;;;;;;;2.27;1.10;;;;;;;;;;5100202;28;20489;-73
2022/05/25 10:47:33;;;;;;;1.77;0.93;;;;;;;;;;5099376;27;20459;-71
2022/05/25 10:50:04;;;;;;;1.80;0.70;;;;;;;;;;5101717;28;20472;-70
2022/05/25 10:52:34;;;;;;;1.60;0.73;;;;;;;;;;5092805;28;20475;-71
2022/05/25 10:55:05;;;;;;;2.17;0.90;;;;;;;;;;5102811;28;21121;-70
2022/05/25 10:57:47;;;;;;;2.30;0.90;;;;;;;;;;5099998;28;20455;-71
2022/05/25 11:00:17;;;;;;;1.70;0.83;;;;;;;;;;5102183;28;20459;-71
2022/05/25 11:03:02;;;;;;;2.37;1.20;;;;;;;;;;5107779;27;20447;-71
2022/05/25 11:05:33;;;;;;;2.00;0.90;;;;;;;;;;5056122;28;20526;-71
2022/05/25 11:08:09;;;;;;;2.00;0.73;;;;;;;;;;5104832;27;20473;-72
2022/05/25 11:10:58;;;;;;;1.50;0.63;;;;;;;;;;5097251;28;20467;-73
2022/05/25 11:13:44;;;;;;;4.23;1.30;;;;;;;;;;5095070;27;21034;-71
2022/05/25 11:16:20;;;;;;;2.10;0.77;;;;;;;;;;5105942;28;20561;-72
2022/05/25 11:18:58;;;;;;;2.03;0.80;;;;;;;;;;5104999;28;20502;-72
2022/05/25 11:21:31;;;;;;;2.33;0.97;;;;;;;;;;5105631;27;20442;-72
2022/05/25 11:24:10;;;;;;;1.67;0.67;;;;;;;;;;5097758;28;20463;-73
2022/05/25 11:26:47;;;;;;;2.37;0.90;;;;;;;;;;5101329;27;20471;-73
2022/05/25 11:29:25;;;;;;;3.00;1.67;;;;;;;;;;5102211;28;20443;-73
2022/05/25 11:31:56;;;;;;;1.90;0.60;;;;;;;;;;5110829;27;20450;-73
2022/05/25 11:34:29;;;;;;;3.27;1.90;;;;;;;;;;5101083;27;20448;-72
2022/05/25 11:37:12;;;;;;;2.90;0.70;;;;;;;;;;5105874;27;20468;-72
2022/05/25 11:39:44;;;;;;;3.20;0.80;;;;;;;;;;5102079;28;20470;-72
2022/05/25 11:42:21;;;;;;;4.40;1.43;;;;;;;;;;5109943;27;20492;-72
2022/05/25 11:45:05;;;;;;;1.93;0.70;;;;;;;;;;5111091;27;20575;-72
2022/05/25 11:47:50;;;;;;;2.57;0.70;;;;;;;;;;5109276;27;20466;-72
2022/05/25 11:50:33;;;;;;;2.80;1.50;;;;;;;;;;5110946;27;20538;-72
2022/05/25 11:53:19;;;;;;;3.40;1.20;;;;;;;;;;5107522;27;20491;-72
2022/05/25 11:55:56;;;;;;;2.00;0.70;;;;;;;;;;5102909;28;20842;-72
2022/05/25 11:58:39;;;;;;;1.80;0.80;;;;;;;;;;5101615;28;20446;-72
2022/05/25 12:01:16;;;;;;;2.83;1.00;;;;;;;;;;5103795;28;20467;-72
2022/05/25 12:07:07;;;;;;;1.97;0.70;;;;;;;;;;5082630;27;20454;-71
2022/05/25 12:09:54;;;;;;;2.77;0.90;;;;;;;;;;5105633;27;20534;-69
2022/05/25 12:12:30;;;;;;;2.77;0.90;;;;;;;;;;5114366;27;20525;-72
2022/05/25 12:15:04;;;;;;;2.37;0.90;;;;;;;;;;5096773;28;20495;-73
2022/05/25 12:17:40;;;;;;;1.50;0.60;;;;;;;;;;5107059;27;20723;-72
2022/05/25 12:20:10;;;;;;;2.10;0.90;;;;;;;;;;5115177;27;20730;-71
2022/05/25 12:22:40;;;;;;;2.67;0.97;;;;;;;;;;5110769;27;20486;-71
2022/05/25 12:25:10;;;;;;;3.73;1.20;;;;;;;;;;5101671;27;20447;-72
2022/05/25 12:27:43;;;;;;;2.40;0.63;;;;;;;;;;5104857;28;20477;-72
2022/05/25 12:30:20;;;;;;;3.30;2.10;;;;;;;;;;5097640;28;20478;-72
2022/05/25 12:32:48;;;;;;;2.70;0.90;;;;;;;;;;5097221;28;20518;-72
2022/05/25 12:35:17;;;;;;;2.77;0.73;;;;;;;;;;5108265;27;20501;-72
2022/05/25 12:37:53;;;;;;;1.60;0.70;;;;;;;;;;5108862;27;20998;-71
2022/05/25 12:40:45;;;;;;;2.13;0.80;;;;;;;;;;5111812;27;20452;-72
2022/05/25 12:43:40;;;;;;;2.33;0.70;;;;;;;;;;5077845;28;20935;-71
2022/05/25 12:48:58;;;;;;;3.13;1.00;;;;;;;;;;5096215;28;20743;-70
2022/05/25 12:51:32;;;;;;;2.00;0.77;;;;;;;;;;5104592;27;20442;-70
2022/05/25 12:54:05;;;;;;;3.10;0.90;;;;;;;;;;5103184;28;20560;-70
2022/05/25 12:56:39;;;;;;;2.57;1.10;;;;;;;;;;5109430;28;20453;-70
2022/05/25 12:59:09;;;;;;;2.60;1.20;;;;;;;;;;5111896;27;21110;-70
2022/05/25 13:01:38;;;;;;;2.53;1.00;;;;;;;;;;5112314;27;20765;-69
2022/05/25 13:04:19;;;;;;;3.83;0.70;;;;;;;;;;5095222;27;20463;-70
2022/05/25 13:07:05;;;;;;;2.43;0.80;;;;;;;;;;5104518;27;20450;-69
2022/05/25 13:09:40;;;;;;;5.90;0.70;;;;;;;;;;5097986;27;20480;-70
2022/05/25 13:12:28;;;;;;;1.87;0.80;;;;;;;;;;5103414;28;20459;-73
2022/05/25 13:15:12;;;;;;;1.87;0.83;;;;;;;;;;5098640;28;20443;-71
2022/05/25 13:17:49;;;;;;;3.40;1.13;;;;;;;;;;5111531;27;20474;-70
2022/05/25 13:20:19;;;;;;;2.37;0.70;;;;;;;;;;5106789;28;20456;-71
2022/05/25 13:22:50;;;;;;;1.47;0.63;;;;;;;;;;5104602;27;20478;-71
2022/05/25 13:25:27;;;;;;;3.10;1.23;;;;;;;;;;5106736;28;20461;-70
2022/05/25 13:28:30;;;;;;;1.60;0.60;;;;;;;;;;5108132;27;20500;-70
2022/05/25 13:31:08;;;;;;;3.70;0.60;;;;;;;;;;5098600;27;20458;-71
2022/05/25 13:33:43;;;;;;;3.17;1.00;;;;;;;;;;5103773;28;20475;-70
2022/05/25 13:36:16;;;;;;;2.73;0.90;;;;;;;;;;5106455;28;20557;-70
2022/05/25 13:38:48;;;;;;;3.30;1.17;;;;;;;;;;5101963;27;20439;-71
2022/05/25 13:41:23;;;;;;;2.13;0.83;;;;;;;;;;5099323;28;20542;-69
2022/05/25 13:44:09;;;;;;;2.00;1.10;;;;;;;;;;5105380;27;20469;-70
2022/05/25 13:46:48;;;;;;;2.90;0.97;;;;;;;;;;5111801;27;20513;-69
2022/05/25 13:49:21;;;;;;;3.53;1.17;;;;;;;;;;5105213;27;20508;-70
2022/05/25 13:51:57;;;;;;;2.70;1.00;;;;;;;;;;5104956;27;20470;-70
2022/05/25 13:54:33;;;;;;;2.03;0.87;;;;;;;;;;5102506;28;20899;-70
2022/05/25 13:57:02;;;;;;;2.50;1.00;;;;;;;;;;5107676;27;20484;-71
2022/05/25 13:59:35;;;;;;;2.63;1.00;;;;;;;;;;5112008;27;21044;-71
2022/05/25 14:02:24;;;;;;;4.00;1.23;;;;;;;;;;5097730;28;20901;-72
2022/05/25 14:04:56;;;;;;;2.10;0.90;;;;;;;;;;5095503;28;20459;-69
2022/05/25 14:07:31;;;;;;;2.83;1.13;;;;;;;;;;5104531;28;20905;-71
2022/05/25 14:13:12;;;;;;;4.03;1.00;;;;;;;;;;5109575;28;21238;-72
2022/05/25 14:15:40;;;;;;;4.07;1.43;;;;;;;;;;5104835;28;20519;-72
2022/05/25 14:18:08;;;;;;;2.30;1.20;;;;;;;;;;5101238;28;20502;-72
2022/05/25 14:20:48;;;;;;;1.97;1.17;;;;;;;;;;5104897;27;20693;-72
2022/05/25 14:23:21;;;;;;;2.13;0.80;;;;;;;;;;5106130;28;20515;-71
2022/05/25 14:25:59;;;;;;;2.37;0.97;;;;;;;;;;5106884;28;20479;-72
2022/05/25 14:28:38;;;;;;;1.80;0.80;;;;;;;;;;5110446;28;20447;-71
2022/05/25 14:31:16;;;;;;;3.00;1.23;;;;;;;;;;5108590;27;20506;-71
2022/05/25 14:33:48;;;;;;;3.83;1.07;;;;;;;;;;5102288;28;20841;-71
2022/05/25 14:36:22;;;;;;;2.43;0.80;;;;;;;;;;5112374;27;20442;-72
2022/05/25 14:38:50;;;;;;;1.73;0.70;;;;;;;;;;5109756;28;20454;-69
2022/05/25 14:41:24;;;;;;;3.20;0.90;;;;;;;;;;5101971;28;20744;-69
2022/05/25 14:43:51;;;;;;;3.03;0.77;;;;;;;;;;5094389;28;20627;-70
2022/05/25 14:46:32;;;;;;;1.93;1.17;;;;;;;;;;5106010;27;20450;-70
2022/05/25 14:49:00;;;;;;;4.40;1.00;;;;;;;;;;5112594;27;20455;-70
2022/05/25 14:51:31;;;;;;;1.97;1.00;;;;;;;;;;5102886;27;20887;-70
2022/05/25 14:54:06;;;;;;;2.40;1.13;;;;;;;;;;5113094;28;20766;-71
2022/05/25 14:56:39;;;;;;;1.70;0.60;;;;;;;;;;5112342;27;20446;-71
2022/05/25 14:59:09;;;;;;;2.23;1.10;;;;;;;;;;5112542;27;20481;-72
2022/05/25 15:01:38;;;;;;;3.20;1.10;;;;;;;;;;5107058;28;20511;-72
2022/05/25 15:04:09;;;;;;;2.20;0.73;;;;;;;;;;5098911;27;20477;-72
2022/05/25 15:06:56;;;;;;;1.97;0.67;;;;;;;;;;5106162;28;20717;-72
2022/05/25 15:09:26;;;;;;;2.10;0.70;;;;;;;;;;5110501;27;20477;-73
2022/05/25 15:12:05;;;;;;;1.90;0.73;;;;;;;;;;5106372;27;20538;-72
2022/05/25 15:20:09;;;;;;;3.20;0.90;;;;;;;;;;5115772;27;21044;-70
2022/05/25 15:22:38;;;;;;;3.87;0.73;;;;;;;;;;5106442;27;20470;-71
2022/05/25 15:25:15;;;;;;;5.10;0.97;;;;;;;;;;5114464;27;20545;-71
2022/05/25 15:27:48;;;;;;;3.20;0.70;;;;;;;;;;5098304;28;20459;-71
2022/05/25 15:30:25;;;;;;;2.60;0.70;;;;;;;;;;5098623;28;20462;-71
2022/05/25 15:32:52;;;;;;;1.90;0.97;;;;;;;;;;5112694;27;20474;-71
2022/05/25 15:35:23;;;;;;;1.90;0.80;;;;;;;;;;5111135;28;20448;-72
2022/05/25 15:37:56;;;;;;;1.93;0.77;;;;;;;;;;5112134;27;20462;-70
2022/05/25 15:40:23;;;;;;;1.80;0.77;;;;;;;;;;5111347;28;20452;-70
2022/05/25 15:42:53;;;;;;;2.00;0.73;;;;;;;;;;5106051;28;20894;-70
2022/05/25 15:45:23;;;;;;;4.90;1.10;;;;;;;;;;5105893;27;20551;-70
2022/05/25 15:47:57;;;;;;;2.33;1.00;;;;;;;;;;5112087;28;20439;-70
2022/05/25 15:50:26;;;;;;;2.60;0.80;;;;;;;;;;5110272;27;20781;-70
2022/05/25 15:52:54;;;;;;;1.73;0.70;;;;;;;;;;5105498;27;20550;-70